createdAt,value
2022-11-20T00:14:11.309Z,5.41
2022-11-20T00:24:50.101Z,5.39
2022-11-20T00:30:12.362Z,5.41
2022-11-20T00:40:50.967Z,5.42
2022-11-20T00:56:45.759Z,5.37
2022-11-20T01:07:24.243Z,5.37
2022-11-20T01:12:43.208Z,5.37
2022-11-20T01:18:01.847Z,5.35
2022-11-20T01:23:21.346Z,5.37
2022-11-20T01:28:40.495Z,5.38
2022-11-20T01:39:19.311Z,5.38
2022-11-20T01:49:58.062Z,5.39
2022-11-20T01:55:17.513Z,5.39
2022-11-20T02:05:56.468Z,5.39
2022-11-20T02:11:15.843Z,5.41
2022-11-20T02:21:54.863Z,5.39
2022-11-20T02:32:33.114Z,5.39
2022-11-20T02:43:12.172Z,5.39
2022-11-20T02:48:33.900Z,5.38
2022-11-20T02:59:09.925Z,5.41
2022-11-20T03:15:32.503Z,5.39
2022-11-20T03:20:52.072Z,5.41
2022-11-20T03:31:31.401Z,5.41
2022-11-20T03:47:29.810Z,5.44
2022-11-20T03:58:08.733Z,5.42
2022-11-20T04:03:28.095Z,5.42
2022-11-20T04:14:06.670Z,5.42
2022-11-20T04:30:14.370Z,5.41
2022-11-20T04:40:43.584Z,5.39
2022-11-20T04:46:02.902Z,5.37
2022-11-20T04:56:41.301Z,5.38
2022-11-20T05:07:20.268Z,5.41
2022-11-20T05:12:39.363Z,5.41
2022-11-20T05:23:18.273Z,5.38
2022-11-20T05:28:37.496Z,5.41
2022-11-20T05:39:16.562Z,5.39
2022-11-20T05:55:25.421Z,5.39
2022-11-20T06:05:53.708Z,5.41
2022-11-20T06:11:13.051Z,5.42
2022-11-20T06:21:52.060Z,5.42
2022-11-20T06:37:50.804Z,5.45
2022-11-20T06:43:09.751Z,5.44
2022-11-20T06:48:29.326Z,5.44
2022-11-20T06:53:48.588Z,5.45
2022-11-20T07:04:27.305Z,5.48
2022-11-20T07:09:54.201Z,5.45
2022-11-20T07:20:24.905Z,5.45
2022-11-20T07:31:04.259Z,5.48
2022-11-20T07:36:23.327Z,5.51
2022-11-20T07:47:01.615Z,5.54
2022-11-20T07:52:21.097Z,5.52
2022-11-20T08:02:59.500Z,5.55
2022-11-20T08:18:57.975Z,5.59
2022-11-20T08:29:36.337Z,5.6
2022-11-20T08:34:55.673Z,5.65
2022-11-20T08:45:35.170Z,5.68
2022-11-20T09:01:32.209Z,5.78
2022-11-20T09:12:11.103Z,5.82
2022-11-20T09:22:49.517Z,5.83
2022-11-20T09:28:08.600Z,5.89
2022-11-20T09:33:27.427Z,5.89
2022-11-20T09:38:46.605Z,5.92
2022-11-20T09:49:29.117Z,5.98
2022-11-20T09:54:43.377Z,6
2022-11-20T10:00:03.014Z,6.07
2022-11-20T10:05:22.346Z,6.09
2022-11-20T10:21:20.274Z,6.22
2022-11-20T10:37:18.979Z,6.24
2022-11-20T10:47:57.793Z,6.23
2022-11-20T10:53:16.958Z,6.23
2022-11-20T11:03:55.190Z,6.14
2022-11-20T11:14:33.607Z,6.14
2022-11-20T11:19:52.785Z,6.17
2022-11-20T11:30:31.145Z,6.22
2022-11-20T11:35:51.686Z,6.22
2022-11-20T11:46:29.185Z,6.26
2022-11-20T11:51:48.278Z,6.24
2022-11-20T12:02:27.305Z,6.29
2022-11-20T12:13:05.698Z,6.3
2022-11-20T12:18:25.145Z,6.33
2022-11-20T12:23:44.534Z,6.27
2022-11-20T12:29:04.329Z,6.33
2022-11-20T12:34:31.871Z,6.36
2022-11-20T12:45:02.914Z,6.38
2022-11-20T13:01:00.774Z,6.44
2022-11-20T13:11:39.927Z,6.47
2022-11-20T13:17:02.072Z,6.48
2022-11-20T13:27:36.653Z,6.54
2022-11-20T13:43:34.990Z,6.7
2022-11-20T13:54:13.646Z,6.78
2022-11-20T13:59:33.038Z,6.83
2022-11-20T14:04:52.732Z,6.83
2022-11-20T14:10:11.712Z,6.85
2022-11-20T14:15:31.329Z,6.85
2022-11-20T14:26:09.557Z,6.91
2022-11-20T14:36:48.186Z,6.88
2022-11-20T14:42:07.402Z,6.89
2022-11-20T14:52:45.650Z,6.89
2022-11-20T15:08:42.750Z,6.92
2022-11-20T15:24:41.171Z,6.88
2022-11-20T15:35:19.302Z,6.84
2022-11-20T15:40:38.451Z,6.83
2022-11-20T15:51:16.432Z,6.78
2022-11-20T16:01:54.442Z,6.71
2022-11-20T16:12:33.253Z,6.66
2022-11-20T16:17:52.365Z,6.64
2022-11-20T16:28:30.698Z,6.6
2022-11-20T16:44:28.627Z,6.51
2022-11-20T16:55:06.519Z,6.47
2022-11-20T17:00:25.380Z,6.48
2022-11-20T17:11:04.732Z,6.43
2022-11-20T17:27:02.218Z,6.38
2022-11-20T17:37:40.253Z,6.37
2022-11-20T17:42:59.729Z,6.36
2022-11-20T17:53:38.425Z,6.32
2022-11-20T17:58:57.447Z,6.32
2022-11-20T18:09:36.045Z,6.32
2022-11-20T18:20:28.918Z,6.3
2022-11-20T18:25:34.501Z,6.3
2022-11-20T18:36:13.332Z,6.29
2022-11-20T18:41:32.118Z,6.29
2022-11-20T18:52:10.921Z,6.29
2022-11-20T18:57:29.982Z,6.27
2022-11-20T19:02:48.739Z,6.29
2022-11-20T19:08:08.099Z,6.29
2022-11-20T19:13:27.387Z,6.26
2022-11-20T19:18:46.175Z,6.27
2022-11-20T19:24:05.343Z,6.27
2022-11-20T19:34:44.290Z,6.26
2022-11-20T19:50:42.625Z,6.26
2022-11-20T20:01:21.404Z,6.26
2022-11-20T20:06:40.708Z,6.22
2022-11-20T20:17:19.410Z,6.24
2022-11-20T20:22:39.142Z,6.23
2022-11-20T20:27:58.547Z,6.22
2022-11-20T20:33:18.065Z,6.23
2022-11-20T20:43:56.406Z,6.2
2022-11-20T20:49:15.945Z,6.22
2022-11-20T21:05:46.145Z,6.22
2022-11-20T21:16:24.687Z,6.2
2022-11-20T21:21:44.273Z,6.19
2022-11-20T21:32:22.098Z,6.17
2022-11-20T21:48:20.149Z,6.17
2022-11-20T22:04:18.439Z,6.19
2022-11-20T22:09:38.086Z,6.16
2022-11-20T22:14:56.672Z,6.17
2022-11-20T22:20:15.715Z,6.16
2022-11-20T22:25:34.910Z,6.17
2022-11-20T22:30:54.187Z,6.16
2022-11-20T22:41:33.050Z,6.16
2022-11-20T22:52:11.796Z,6.17
2022-11-20T22:57:31.487Z,6.17
2022-11-20T23:02:50.942Z,6.17
2022-11-20T23:08:09.857Z,6.16
2022-11-20T23:13:29.274Z,6.16
2022-11-20T23:24:07.806Z,6.17
2022-11-20T23:29:26.832Z,6.2
2022-11-20T23:34:46.143Z,6.17
2022-11-20T23:40:05.750Z,6.17
2022-11-20T23:50:44.083Z,6.2
2022-11-20T23:56:03.754Z,6.16
